Nearby METAR Reports

 

KAGC - Pittsburgh/Alleg, Pennsylvania, USA
Distance from station: N 14mi, 23km
Updated: Tue, Dec-01-2020 12:00pm EST
NOT Current
Light snow, Freezing, Fog, Overcast
Light snow, Freezing, Fog, Overcast
 Wind from WSW
Wind: WSW 17 mph , 28 km/h, Gust: 33 mph , 54 km/h
Temperature: 28°F , -2°C
Wind Chill: 16°F , -9°C
Dew Point: 27°F , -3°C
Humidity: 93%
Barometer: 29.68 inHg , 1005.1 hPa
Summary: Light snow, Freezing, Fog
Clouds: Overcast
Visibility: 1/2 mile , 0.8 km
Cloud details: Partly cloudy 1000 ft
Overcast 1400 ft
2020/12/01 17:00 KAGC 011700Z 25015G29KT 1/2SM R28/4000V4500FT -SN FZFG SCT010 OVC014 M02/M03 A2968 RMK AO2 P0000 T10171033
KAFJ - Washington, Pennsylvania, USA
Distance from station: W 17mi, 28km
Updated: Tue, Dec-01-2020 12:10pm EST
NOT Current
Light snow, Overcast
Light snow, Overcast
 Wind from WSW
Wind: WSW 14 mph , 22 km/h
Barometer: 29.75 inHg , 1007.5 hPa
Summary: Light Snow
Clouds: Overcast
Visibility: 1 1/4 miles , 2 km
Cloud details: Mostly cloudy 1200 ft
Mostly cloudy 1800 ft
Overcast 2300 ft
2020/12/01 17:10 KAFJ 011710Z AUTO 25012KT 1 1/4SM -SN BKN012 BKN018 OVC023 A2975 RMK AO2 P0000 FZRANO $
 
KLBE - Latrobe, Pennsylvania, USA
Distance from station: ENE 30mi, 48km
Updated: Tue, Dec-01-2020 12:20pm EST
NOT Current
Light snow, Overcast
Light snow, Overcast
 Wind from SW
Wind: SW 17 mph , 28 km/h, Gust: 29 mph , 46 km/h
Temperature: 30°F , -1°C
Wind Chill: 18°F , -8°C
Dew Point: 28°F , -2°C
Humidity: 93%
Barometer: 29.69 inHg , 1005.4 hPa
Summary: Light Snow
Clouds: Overcast
Visibility: 1 mile , 2 km
Cloud details: Overcast 400 ft
2020/12/01 17:20 KLBE 011720Z 23015G25KT 1SM -SN VV004 M01/M02 A2969
KPIT - Pittsburgh, Pennsylvania, USA
Distance from station: NW 30mi, 48km
Updated: Tue, Dec-01-2020 11:51am EST
NOT Current
Light snow, Overcast
Light snow, Overcast
 Wind from WSW
Wind: WSW 14 mph , 22 km/h, Gust: 23 mph , 37 km/h
Temperature: 28°F , -2°C
Wind Chill: 17°F , -8°C
Dew Point: 27°F , -3°C
Humidity: 93%
Barometer: 29.68 inHg , 1005.1 hPa
Summary: Light Snow
Clouds: Overcast
Visibility: 3/4 mile , 1.2 km
Cloud details: Overcast 900 ft
2020/12/01 16:51 KPIT 011651Z 25012G20KT 3/4SM R28R/3500V4000FT -SN VV009 M02/M03 A2968 RMK AO2 SLP070 P0001 T10221033
 
KMGW - Morgantown, West Virginia, USA
Distance from station: S 34mi, 55km
Updated: Tue, Dec-01-2020 11:53am EST
NOT Current
Mist, Overcast
Mist, Overcast
 Wind from SW
Wind: SW 9 mph , 15 km/h
Temperature: 30°F , -1°C
Wind Chill: 22°F , -6°C
Dew Point: 27°F , -3°C
Humidity: 86%
Barometer: 29.76 inHg , 1007.8 hPa
Summary: Mist
Clouds: Overcast
Visibility: 4 miles , 6 km
Cloud details: Partly cloudy 1100 ft
Mostly cloudy 1800 ft
Overcast 5000 ft
2020/12/01 16:53 KMGW 011653Z 23008KT 190V270 4SM BR SCT011 BKN018 OVC050 M01/M03 A2976 RMK AO2 SNE10B34E51 SLP088 P0001 T10061028
KHLG - Wheeling, West Virginia, USA
Distance from station: W 37mi, 60km
Updated: Tue, Dec-01-2020 12:16pm EST
NOT Current
Light snow, Overcast
Light snow, Overcast
 Wind from W
Wind: W 22 mph , 35 km/h, Gust: 30 mph , 48 km/h
Temperature: 28°F , -2°C
Wind Chill: 14°F , -10°C
Dew Point: 25°F , -4°C
Humidity: 86%
Barometer: 29.73 inHg , 1006.8 hPa
Summary: Light Snow
Clouds: Overcast
Visibility: 3 miles , 5 km
Cloud details: Mostly cloudy 1400 ft
Overcast 2400 ft
2020/12/01 17:16 KHLG 011716Z 26019G26KT 3SM -SN BKN014 OVC024 M02/M04 A2973 RMK AO2 PK WND 26027/1706 P0000 T10171044
 
KBTP - Butler Co., Pennsylvania, USA
Distance from station: N 43mi, 69km
Updated: Tue, Dec-01-2020 11:56am EST
NOT Current
Light snow, Mist, Overcast
Light snow, Mist, Overcast
 Wind from WSW
Wind: WSW 18 mph , 30 km/h, Gust: 25 mph , 41 km/h
Temperature: 28°F , -2°C
Wind Chill: 15°F , -9°C
Dew Point: 27°F , -3°C
Humidity: 93%
Barometer: 29.65 inHg , 1004.1 hPa
Summary: Light snow, Mist
Clouds: Overcast
Visibility: 1 1/2 miles , 2.4 km
Cloud details: Overcast 1000 ft
2020/12/01 16:56 KBTP 011656Z AUTO 25016G22KT 1 1/2SM -SN BR OVC010 M02/M03 A2965 RMK AO2 SLP058 T10171033 FZRANO PNO $
KBVI - Beaver Falls Arp, Pennsylvania, USA
Distance from station: NNW 49mi, 79km
Updated: Tue, Dec-01-2020 12:15pm EST
NOT Current
Heavy rain, Overcast
Heavy rain, Overcast
 Wind from WSW
Wind: WSW 14 mph , 22 km/h, Gust: 21 mph , 33 km/h
Temperature: 28°F , -2°C
Wind Chill: 17°F , -8°C
Dew Point: 27°F , -3°C
Humidity: 93%
Barometer: 29.67 inHg , 1004.7 hPa
Summary: Heavy rain
Clouds: Overcast
Visibility: 5 miles , 8 km
Cloud details: Overcast 1100 ft
2020/12/01 17:15 KBVI 011715Z AUTO 25012G18KT 5SM +RA OVC011 M02/M03 A2967 RMK AO2 T10161030
 
K2G4 - Garrett Co, Maryland, USA
Distance from station: SE 51mi, 82km
Updated: Tue, Dec-01-2020 12:15pm EST
NOT Current

 Wind from W
Wind: W 14 mph , 22 km/h, Gust: 26 mph , 43 km/h
Temperature: 23°F , -5°C
Wind Chill: 11°F , -12°C
Dew Point: 21°F , -6°C
Humidity: 93%
Barometer: 29.60 inHg , 1002.4 hPa
Visibility: 1 mile , 2 km
2020/12/01 17:15 K2G4 011715Z AUTO 27012G23KT 242V302 1SM M05/M06 A2960 RMK AO1
KIDI - Indiana/Stewart, Pennsylvania, USA
Distance from station: NE 56mi, 90km
Updated: Tue, Dec-01-2020 12:15pm EST
NOT Current
Mist, Mostly cloudy
Mist, Mostly cloudy
 Wind from W
Wind: W 15 mph , 24 km/h, Gust: 25 mph , 41 km/h
Temperature: 28°F , -2°C
Wind Chill: 16°F , -9°C
Dew Point: 28°F , -2°C
Humidity: 100%
Barometer: 29.66 inHg , 1004.4 hPa
Summary: Mist
Clouds: Mostly cloudy
Visibility: 1/2 mile , 0.8 km
Cloud details: Mostly cloudy 900 ft
Mostly cloudy 1300 ft
2020/12/01 17:15 KIDI 011715Z AUTO 27013G22KT 1/2SM BR BKN009 BKN013 M02/M02 A2966 RMK A01
 
KJST - Johnstown, Pennsylvania, USA
Distance from station: ENE 60mi, 96km
Updated: Tue, Dec-01-2020 11:54am EST
NOT Current
Snow, Freezing, Fog, Overcast
Snow, Freezing, Fog, Overcast
 Wind from WSW
Wind: WSW 17 mph , 28 km/h, Gust: 26 mph , 43 km/h
Temperature: 27°F , -3°C
Wind Chill: 14°F , -10°C
Dew Point: 21°F , -6°C
Humidity: 80%
Barometer: 29.57 inHg , 1001.4 hPa
Summary: Snow, Freezing, Fog
Clouds: Overcast
Visibility: 1/2 mile , 0.8 km
Cloud details: Overcast 600 ft
2020/12/01 16:54 KJST 011654Z AUTO 25015G23KT 1/2SM SN FZFG OVC006 M03/M06 A2957 RMK AO2 PK WND 26028/1602 SLP037 P0000 T10331056
KCBE - Cumberland Reg, Maryland, USA
Distance from station: ESE 72mi, 116km
Updated: Tue, Dec-01-2020 12:15pm EST
NOT Current
Overcast
Overcast
 
Temperature: 36°F , 2°C
Dew Point: 23°F , -5°C
Humidity: 60%
Barometer: 29.75 inHg , 1007.5 hPa
Clouds: Overcast
Visibility: 10 miles , 16 km
Cloud details: Overcast 4100 ft
2020/12/01 17:15 KCBE 011715Z AUTO 10SM OVC041 02/M05 A2975 RMK AO2 T00231054
 
KILG - Wilmington, Delaware, USA
Distance from station: ESE 234mi, 377km
Updated: Tue, Dec-01-2020 11:51am EST
NOT Current
Overcast
Overcast
 Wind from W
Wind: W 16 mph , 26 km/h, Gust: 25 mph , 41 km/h
Temperature: 45°F , 7°C
Wind Chill: 38°F , 3°C
Dew Point: 32°F , 0°C
Humidity: 61%
Barometer: 29.63 inHg , 1003.4 hPa
Clouds: Overcast
Visibility: 10 miles , 16 km
Cloud details: Partly cloudy 2500 ft
Overcast 3100 ft
2020/12/01 16:51 KILG 011651Z 27014G22KT 10SM SCT025 OVC031 07/00 A2963 RMK AO2 SLP034 T00670000 $
KTUS - Tucson, Arizona, USA
Distance from station: WSW 1806mi, 3283km
Updated: Tue, Dec-01-2020 12:24pm EST
NOT Current
Clear
Clear
 Wind from S
Wind: S 3 mph , 6 km/h
Temperature: 55°F , 13°C
Dew Point: 16°F , -9°C
Humidity: 21%
Barometer: 30.14 inHg , 1020.7 hPa
Clouds: Clear
Visibility: 10 miles , 16 km
2020/12/01 17:24 KTUS 011724Z 19003KT 10SM CLR 13/M09 A3014 RMK AO2 T01281089